createdAt,value
2018-08-19T00:00:42.008Z,74.38
2018-08-19T00:01:42.423Z,74.43
2018-08-19T00:02:42.782Z,73.83
2018-08-19T00:03:43.010Z,73.97
2018-08-19T00:04:43.272Z,74.22
2018-08-19T00:05:44.046Z,74.48
2018-08-19T00:06:44.361Z,74.58
2018-08-19T00:07:44.696Z,74.97
2018-08-19T00:08:45.384Z,75.32
2018-08-19T00:09:45.743Z,75.39
2018-08-19T00:10:46.103Z,75.18
2018-08-19T00:11:46.710Z,75.01
2018-08-19T00:12:47.018Z,74.88
2018-08-19T00:13:47.364Z,74.85
2018-08-19T00:14:47.744Z,74.51
2018-08-19T00:15:48.130Z,74.81
2018-08-19T00:16:48.487Z,74.88
2018-08-19T00:17:48.841Z,75.12
2018-08-19T00:18:49.196Z,75.39
2018-08-19T00:19:49.519Z,75.98
2018-08-19T00:20:49.823Z,76.33
2018-08-19T00:21:50.386Z,76.23
2018-08-19T00:22:49.597Z,76.03
2018-08-19T00:23:51.492Z,76.05
2018-08-19T00:24:51.896Z,76.39
2018-08-19T00:25:52.533Z,76.57
2018-08-19T00:26:52.831Z,76.80
2018-08-19T00:27:53.153Z,77.21
2018-08-19T00:28:53.420Z,77.07
2018-08-19T00:29:53.721Z,76.94
2018-08-19T00:30:54.116Z,77.87
2018-08-19T00:31:54.660Z,78.13
2018-08-19T00:32:55.028Z,78.13
2018-08-19T00:33:55.430Z,78.16
2018-08-19T00:34:55.851Z,77.79
2018-08-19T00:35:56.177Z,77.77
2018-08-19T00:36:56.537Z,78.02
2018-08-19T00:37:56.944Z,77.95
2018-08-19T00:38:05.816Z,77.82
2018-08-19T00:39:06.965Z,77.77
2018-08-19T00:40:07.425Z,77.78
2018-08-19T00:41:08.292Z,78.05
2018-08-19T00:42:08.769Z,78.23
2018-08-19T00:43:09.170Z,78.27
2018-08-19T00:44:09.595Z,77.86
2018-08-19T00:45:08.997Z,77.90
2018-08-19T00:46:10.955Z,77.77
2018-08-19T00:47:11.364Z,77.83
2018-08-19T00:48:11.946Z,77.80
2018-08-19T00:49:12.333Z,77.87
2018-08-19T00:50:14.637Z,77.91
2018-08-19T00:51:13.034Z,77.92
2018-08-19T00:52:13.820Z,78.15
2018-08-19T00:53:14.199Z,78.32
2018-08-19T00:54:14.458Z,78.38
2018-08-19T00:55:14.797Z,78.62
2018-08-19T00:56:15.104Z,78.99
2018-08-19T00:57:15.520Z,78.91
2018-08-19T00:58:16.010Z,78.79
2018-08-19T00:59:16.402Z,78.86
2018-08-19T01:00:16.718Z,78.58
2018-08-19T01:01:17.282Z,78.46
2018-08-19T01:02:17.610Z,78.79
2018-08-19T01:03:17.849Z,78.92
2018-08-19T01:04:18.023Z,78.83
2018-08-19T01:05:18.451Z,78.76
2018-08-19T01:06:18.956Z,78.91
2018-08-19T01:07:19.368Z,79.03
2018-08-19T01:08:20.257Z,79.10
2018-08-19T01:09:20.993Z,78.99
2018-08-19T01:10:21.277Z,78.96
2018-08-19T01:11:21.607Z,79.21
2018-08-19T01:12:21.936Z,79.13
2018-08-19T01:13:22.254Z,79.54
2018-08-19T01:14:22.345Z,79.63
2018-08-19T01:15:22.542Z,79.64
2018-08-19T01:16:23.525Z,79.61
2018-08-19T01:17:23.970Z,79.96
2018-08-19T01:18:24.390Z,80.17
2018-08-19T01:19:24.751Z,79.99
2018-08-19T01:20:25.036Z,79.88
2018-08-19T01:21:25.320Z,79.72
2018-08-19T01:22:25.664Z,79.55
2018-08-19T01:23:26.138Z,79.32
2018-08-19T01:23:34.205Z,79.92
2018-08-19T01:24:35.538Z,79.93
2018-08-19T01:25:35.835Z,80.05
2018-08-19T01:26:35.862Z,80.05
2018-08-19T01:27:36.163Z,80.22
2018-08-19T01:28:36.536Z,80.68
2018-08-19T01:29:36.847Z,80.76
2018-08-19T01:30:37.340Z,80.74
2018-08-19T01:31:37.622Z,80.53
2018-08-19T01:32:37.973Z,80.66
2018-08-19T01:33:38.267Z,80.79
2018-08-19T01:34:38.589Z,80.61
2018-08-19T01:35:38.943Z,80.84
2018-08-19T01:36:39.246Z,80.88
2018-08-19T01:37:39.493Z,80.61
2018-08-19T01:38:38.855Z,80.99
2018-08-19T01:39:40.389Z,81.05
2018-08-19T01:40:41.322Z,80.93
2018-08-19T01:41:40.655Z,81.27
2018-08-19T01:42:42.031Z,81.28
2018-08-19T01:43:42.890Z,81.63
2018-08-19T01:44:43.122Z,81.56
2018-08-19T01:45:43.473Z,81.84
2018-08-19T01:46:44.054Z,81.62
2018-08-19T01:47:44.281Z,81.65
2018-08-19T01:48:44.572Z,81.81
2018-08-19T01:49:44.869Z,81.83
2018-08-19T01:50:45.149Z,81.99
2018-08-19T01:51:45.585Z,81.82
2018-08-19T01:52:45.945Z,81.87
2018-08-19T01:53:46.584Z,81.83
2018-08-19T01:54:46.982Z,81.85
2018-08-19T01:55:47.393Z,81.73
2018-08-19T01:56:48.339Z,81.89
2018-08-19T01:57:48.874Z,81.67
2018-08-19T01:58:49.489Z,81.98
2018-08-19T01:59:50.589Z,81.80
2018-08-19T02:00:50.831Z,81.69
2018-08-19T02:01:51.115Z,81.85
2018-08-19T02:02:51.394Z,82.21
2018-08-19T02:03:51.723Z,82.46
2018-08-19T02:04:52.073Z,82.54
2018-08-19T02:05:52.360Z,82.12
2018-08-19T02:06:52.676Z,82.19
2018-08-19T02:07:52.935Z,82.19
2018-08-19T02:08:53.496Z,82.31
2018-08-19T02:09:02.184Z,82.24
2018-08-19T02:10:02.819Z,82.23
2018-08-19T02:11:03.149Z,82.38
2018-08-19T02:12:03.581Z,82.35
2018-08-19T02:13:04.156Z,82.50
2018-08-19T02:14:04.696Z,82.69
2018-08-19T02:15:05.601Z,82.68
2018-08-19T02:16:06.124Z,82.51
2018-08-19T02:17:06.396Z,82.58
2018-08-19T02:18:06.688Z,82.87
2018-08-19T02:19:07.046Z,82.82
2018-08-19T02:20:07.298Z,82.72
2018-08-19T02:21:08.232Z,82.80
2018-08-19T02:22:08.469Z,82.64
2018-08-19T02:23:08.802Z,82.80
2018-08-19T02:24:09.600Z,83.14
2018-08-19T02:25:10.130Z,82.95
2018-08-19T02:26:10.497Z,83.11
2018-08-19T02:27:10.836Z,83.30
2018-08-19T02:28:11.820Z,83.30
2018-08-19T02:29:12.090Z,83.27
2018-08-19T02:30:12.558Z,83.45
2018-08-19T02:31:12.908Z,83.42
2018-08-19T02:32:13.139Z,83.77
2018-08-19T02:33:13.790Z,83.66
2018-08-19T02:34:14.155Z,83.81
2018-08-19T02:35:14.527Z,83.73
2018-08-19T02:36:14.804Z,83.91
2018-08-19T02:37:15.125Z,84.08
2018-08-19T02:38:15.757Z,84.20
2018-08-19T02:39:16.059Z,83.81
2018-08-19T02:40:16.389Z,83.65
2018-08-19T02:41:16.811Z,83.77
2018-08-19T02:42:17.067Z,83.76
2018-08-19T02:43:17.371Z,83.69
2018-08-19T02:44:17.766Z,83.58
2018-08-19T02:45:18.075Z,83.87
2018-08-19T02:46:18.381Z,83.66
2018-08-19T02:47:19.322Z,83.96
2018-08-19T02:48:20.030Z,83.92
2018-08-19T02:49:20.341Z,83.97
2018-08-19T02:50:20.718Z,84.19
2018-08-19T02:51:20.975Z,83.99
2018-08-19T02:52:21.260Z,83.92
2018-08-19T02:53:21.684Z,84.13
2018-08-19T02:53:31.657Z,83.84
2018-08-19T02:54:31.915Z,83.86
2018-08-19T02:55:33.163Z,84.02
2018-08-19T02:56:33.612Z,83.84
2018-08-19T02:57:33.930Z,83.79
2018-08-19T02:58:34.307Z,83.51
2018-08-19T02:59:34.578Z,83.67
2018-08-19T03:00:34.982Z,83.75
2018-08-19T03:01:35.432Z,83.48
2018-08-19T03:02:35.796Z,83.62
2018-08-19T03:03:36.681Z,83.64
2018-08-19T03:04:37.138Z,83.53
2018-08-19T03:05:37.452Z,83.32
2018-08-19T03:06:37.459Z,83.48
2018-08-19T03:07:39.037Z,83.25
2018-08-19T03:08:38.427Z,83.05
2018-08-19T03:09:38.731Z,83.46
2018-08-19T03:10:38.980Z,83.57
2018-08-19T03:11:39.377Z,83.81
2018-08-19T03:12:39.612Z,83.86
2018-08-19T03:13:39.822Z,83.45
2018-08-19T03:14:40.745Z,83.69
2018-08-19T03:15:40.976Z,83.68
2018-08-19T03:16:41.272Z,83.73
2018-08-19T03:17:41.570Z,83.74
2018-08-19T03:18:42.415Z,83.78
2018-08-19T03:19:42.661Z,83.87
2018-08-19T03:20:43.065Z,83.87
2018-08-19T03:21:43.703Z,84.06
2018-08-19T03:22:44.577Z,83.69
2018-08-19T03:23:44.862Z,83.79
2018-08-19T03:24:45.115Z,83.56
2018-08-19T03:25:45.451Z,84.00
2018-08-19T03:26:45.732Z,84.07
2018-08-19T03:27:45.964Z,84.00
2018-08-19T03:28:46.253Z,83.67
2018-08-19T03:29:46.709Z,83.48
2018-08-19T03:30:46.931Z,83.89
2018-08-19T03:31:46.986Z,84.07
2018-08-19T03:32:47.220Z,84.44
2018-08-19T03:33:47.540Z,84.66
2018-08-19T03:34:48.096Z,84.63
2018-08-19T03:35:48.310Z,84.47
2018-08-19T03:36:02.415Z,84.31
2018-08-19T03:37:03.617Z,84.31
2018-08-19T03:38:03.947Z,84.47
2018-08-19T03:39:03.100Z,84.56
2018-08-19T03:40:04.326Z,84.50
2018-08-19T03:41:04.538Z,84.41
2018-08-19T03:42:04.778Z,84.27
2018-08-19T03:43:05.602Z,84.42
2018-08-19T03:44:05.855Z,84.37
2018-08-19T03:45:06.602Z,84.17
2018-08-19T03:46:06.916Z,84.40
2018-08-19T03:47:07.181Z,84.50
2018-08-19T03:48:07.437Z,84.79
2018-08-19T03:49:07.713Z,84.74
2018-08-19T03:50:07.975Z,85.15
2018-08-19T03:51:08.217Z,85.23
2018-08-19T03:52:08.491Z,85.30
2018-08-19T03:53:08.858Z,85.33
2018-08-19T03:54:09.691Z,85.69
2018-08-19T03:55:10.332Z,85.87
2018-08-19T03:56:10.833Z,85.79
2018-08-19T03:57:11.126Z,85.93
2018-08-19T03:58:11.365Z,85.70
2018-08-19T03:59:11.696Z,85.90
2018-08-19T04:00:12.983Z,86.32
2018-08-19T04:01:12.307Z,86.03
2018-08-19T04:02:12.595Z,85.91
2018-08-19T04:03:13.037Z,85.95
2018-08-19T04:04:13.308Z,85.75
2018-08-19T04:05:13.697Z,86.02
2018-08-19T04:06:14.031Z,85.94
2018-08-19T04:07:14.274Z,85.94
2018-08-19T04:08:14.664Z,86.09
2018-08-19T04:09:13.813Z,86.35
2018-08-19T04:10:15.103Z,86.46
2018-08-19T04:11:15.362Z,86.45
2018-08-19T04:12:16.081Z,86.17
2018-08-19T04:13:16.409Z,86.28
2018-08-19T04:14:16.679Z,85.94
2018-08-19T04:15:16.934Z,86.14
2018-08-19T04:16:17.404Z,86.21
2018-08-19T04:17:17.758Z,86.06
2018-08-19T04:18:18.683Z,86.23
2018-08-19T04:19:18.950Z,86.16
2018-08-19T04:20:19.237Z,86.30
2018-08-19T04:20:27.918Z,86.47
2018-08-19T04:21:28.560Z,86.53
2018-08-19T04:22:29.120Z,86.66
2018-08-19T04:23:29.367Z,86.58
2018-08-19T04:24:29.641Z,86.43
2018-08-19T04:25:29.827Z,86.49
2018-08-19T04:26:30.068Z,86.70
2018-08-19T04:27:30.292Z,86.37
2018-08-19T04:28:30.639Z,86.29
2018-08-19T04:29:30.890Z,86.88
2018-08-19T04:30:31.242Z,86.73
2018-08-19T04:31:30.448Z,86.72
2018-08-19T04:32:31.716Z,86.80
2018-08-19T04:33:32.387Z,87.18
2018-08-19T04:34:32.822Z,87.08
2018-08-19T04:35:33.049Z,87.36
2018-08-19T04:36:33.271Z,87.54
2018-08-19T04:37:33.532Z,87.69
2018-08-19T04:38:34.034Z,87.49
2018-08-19T04:39:34.332Z,87.80
2018-08-19T04:40:34.586Z,87.96
2018-08-19T04:41:34.817Z,88.15
2018-08-19T04:42:35.091Z,88.12
2018-08-19T04:43:35.448Z,87.96
2018-08-19T04:44:36.127Z,88.05
2018-08-19T04:45:37.224Z,88.08
2018-08-19T04:46:36.492Z,88.36
2018-08-19T04:47:36.778Z,87.98
2018-08-19T04:48:37.057Z,88.11
2018-08-19T04:49:37.387Z,88.08
2018-08-19T04:50:37.709Z,87.94
2018-08-19T04:51:38.125Z,87.51
2018-08-19T04:52:38.382Z,87.78
2018-08-19T04:53:38.653Z,87.97
2018-08-19T04:54:38.930Z,87.98
2018-08-19T04:55:39.257Z,87.82
2018-08-19T04:56:39.536Z,87.47
2018-08-19T04:57:39.812Z,87.72
2018-08-19T04:58:40.054Z,87.56
2018-08-19T04:59:40.267Z,87.21
2018-08-19T05:00:40.628Z,87.59
2018-08-19T05:01:40.880Z,87.57
2018-08-19T05:02:41.338Z,87.53
2018-08-19T05:03:41.781Z,87.51
2018-08-19T05:04:41.075Z,87.63
2018-08-19T05:05:42.379Z,87.74
2018-08-19T05:06:42.862Z,87.75
2018-08-19T05:07:42.169Z,87.40
2018-08-19T05:07:50.940Z,87.36
2018-08-19T05:08:51.089Z,87.31
2018-08-19T05:09:52.315Z,87.67
2018-08-19T05:10:52.563Z,87.01
2018-08-19T05:11:52.808Z,87.11
2018-08-19T05:12:53.020Z,87.13
2018-08-19T05:13:53.860Z,87.22
2018-08-19T05:14:53.054Z,87.06
2018-08-19T05:15:53.324Z,87.14
2018-08-19T05:16:55.058Z,87.51
2018-08-19T05:17:55.304Z,87.55
2018-08-19T05:18:55.667Z,87.57
2018-08-19T05:19:55.953Z,87.56
2018-08-19T05:20:56.225Z,87.78
2018-08-19T05:21:56.604Z,87.77
2018-08-19T05:22:56.933Z,87.81
2018-08-19T05:23:57.185Z,87.40
2018-08-19T05:24:57.443Z,87.47
2018-08-19T05:25:58.043Z,87.56
2018-08-19T05:26:58.292Z,87.49
2018-08-19T05:27:58.716Z,87.34
2018-08-19T05:28:58.985Z,86.05
2018-08-19T05:29:59.219Z,85.12
2018-08-19T05:30:58.562Z,84.80
2018-08-19T05:31:59.824Z,83.76
2018-08-19T05:33:00.134Z,82.26
2018-08-19T05:34:00.473Z,80.50
2018-08-19T05:35:00.800Z,79.56
2018-08-19T05:36:01.082Z,78.36
2018-08-19T05:37:01.481Z,77.72
2018-08-19T05:38:01.861Z,76.19
2018-08-19T05:39:01.271Z,75.67
2018-08-19T05:40:02.480Z,73.98
2018-08-19T05:41:02.691Z,73.27
2018-08-19T05:42:02.944Z,72.76
2018-08-19T05:43:03.207Z,72.10
2018-08-19T05:44:03.494Z,71.39
2018-08-19T05:45:04.385Z,70.21
2018-08-19T05:46:04.691Z,69.43
2018-08-19T05:47:05.066Z,69.15
2018-08-19T05:48:04.891Z,68.53
2018-08-19T05:49:06.499Z,67.90
2018-08-19T05:50:07.018Z,68.21
2018-08-19T05:51:07.250Z,68.33
2018-08-19T05:52:07.540Z,67.45
2018-08-19T05:53:07.779Z,67.21
2018-08-19T05:54:08.368Z,66.65
2018-08-19T05:55:07.784Z,66.36
2018-08-19T05:56:09.124Z,65.22
2018-08-19T05:56:17.958Z,64.76
2018-08-19T05:57:19.131Z,64.71
2018-08-19T05:58:19.956Z,64.71
2018-08-19T05:59:20.275Z,64.00
2018-08-19T06:00:20.611Z,63.58
2018-08-19T06:01:20.798Z,62.54
2018-08-19T06:02:21.088Z,62.54
2018-08-19T06:03:21.321Z,62.64
2018-08-19T06:04:21.594Z,64.10
2018-08-19T06:05:20.828Z,64.40
2018-08-19T06:06:22.265Z,64.41
2018-08-19T06:07:22.605Z,64.96
2018-08-19T06:08:23.368Z,63.71
2018-08-19T06:09:23.743Z,63.11
2018-08-19T06:10:24.002Z,62.32
2018-08-19T06:11:24.552Z,61.79
2018-08-19T06:12:25.314Z,62.19
2018-08-19T06:13:25.666Z,62.88
2018-08-19T06:14:25.912Z,61.45
2018-08-19T06:15:26.140Z,60.75
2018-08-19T06:16:26.386Z,60.18
2018-08-19T06:17:26.955Z,59.90
2018-08-19T06:18:27.285Z,59.16
2018-08-19T06:19:27.523Z,58.90
2018-08-19T06:20:27.852Z,57.35
2018-08-19T06:21:28.103Z,57.18
2018-08-19T06:22:28.932Z,56.52
2018-08-19T06:23:29.199Z,56.04
2018-08-19T06:24:29.902Z,55.28
2018-08-19T06:25:30.344Z,54.36
2018-08-19T06:26:30.807Z,52.92
2018-08-19T06:27:30.998Z,53.21
2018-08-19T06:28:31.297Z,52.50
2018-08-19T06:29:31.869Z,51.25
2018-08-19T06:30:32.133Z,51.89
2018-08-19T06:31:32.856Z,53.17
2018-08-19T06:32:33.196Z,52.57
2018-08-19T06:33:33.622Z,50.46
2018-08-19T06:34:34.030Z,50.83
2018-08-19T06:35:33.242Z,50.89
2018-08-19T06:36:34.585Z,50.97
2018-08-19T06:37:33.751Z,51.05
2018-08-19T06:38:35.011Z,50.28
2018-08-19T06:39:35.307Z,51.00
2018-08-19T06:40:35.612Z,51.47
2018-08-19T06:41:35.899Z,50.73
2018-08-19T06:42:36.125Z,51.55
2018-08-19T06:43:36.485Z,51.75
2018-08-19T06:43:45.235Z,50.85
2018-08-19T06:44:46.433Z,50.83
2018-08-19T06:45:46.955Z,50.51
2018-08-19T06:46:47.177Z,51.14
2018-08-19T06:47:46.468Z,51.61
2018-08-19T06:48:47.680Z,50.74
2018-08-19T06:49:47.918Z,50.76
2018-08-19T06:50:48.264Z,50.71
2018-08-19T06:51:48.688Z,49.96
2018-08-19T06:52:49.476Z,49.70
2018-08-19T06:53:49.845Z,50.61
2018-08-19T06:54:50.201Z,49.89
2018-08-19T06:55:50.511Z,50.30
2018-08-19T06:56:50.770Z,49.71
2018-08-19T06:57:51.029Z,49.16
2018-08-19T06:58:51.273Z,48.22
2018-08-19T06:59:51.531Z,48.13
2018-08-19T07:00:51.767Z,47.06
2018-08-19T07:01:52.036Z,45.96
2018-08-19T07:02:52.422Z,45.87
2018-08-19T07:03:52.931Z,45.10
2018-08-19T07:04:52.194Z,45.57
2018-08-19T07:05:53.533Z,45.15
2018-08-19T07:06:53.939Z,44.25
2018-08-19T07:07:54.277Z,43.89
2018-08-19T07:08:54.692Z,44.13
2018-08-19T07:09:55.118Z,43.71
2018-08-19T07:10:55.471Z,43.17
2018-08-19T07:11:55.910Z,43.05
2018-08-19T07:12:55.381Z,42.20
2018-08-19T07:13:56.709Z,42.83
2018-08-19T07:14:55.982Z,41.97
2018-08-19T07:15:57.275Z,41.47
2018-08-19T07:16:57.813Z,41.59
2018-08-19T07:17:58.810Z,41.70
2018-08-19T07:18:59.799Z,41.02
2018-08-19T07:20:00.515Z,41.63
2018-08-19T07:20:59.906Z,40.86
2018-08-19T07:22:01.190Z,41.12
2018-08-19T07:23:01.436Z,41.34
2018-08-19T07:24:01.755Z,40.26
2018-08-19T07:25:02.031Z,40.92
2018-08-19T07:26:02.380Z,41.54
2018-08-19T07:27:02.664Z,41.92
2018-08-19T07:28:02.943Z,41.28
2018-08-19T07:29:03.015Z,40.93
2018-08-19T07:30:03.463Z,40.63
2018-08-19T07:31:02.745Z,41.05
2018-08-19T07:32:03.994Z,40.43
2018-08-19T07:33:04.633Z,41.24
2018-08-19T07:33:13.341Z,40.48
2018-08-19T07:34:13.722Z,40.71
2018-08-19T07:35:13.975Z,41.22
2018-08-19T07:36:14.691Z,41.60
2018-08-19T07:37:15.069Z,41.42
2018-08-19T07:38:14.275Z,41.06
2018-08-19T07:39:15.549Z,41.26
2018-08-19T07:40:15.853Z,41.48
2018-08-19T07:41:16.272Z,41.83
2018-08-19T07:42:16.631Z,41.98
2018-08-19T07:43:15.811Z,41.83
2018-08-19T07:44:17.100Z,41.55
2018-08-19T07:45:17.338Z,41.59
2018-08-19T07:46:17.648Z,41.26
2018-08-19T07:47:18.253Z,40.96
2018-08-19T07:48:18.589Z,40.97
2018-08-19T07:49:18.845Z,40.52
2018-08-19T07:50:19.257Z,41.10
2018-08-19T07:51:19.645Z,40.79
2018-08-19T07:52:18.956Z,40.80
2018-08-19T07:53:20.306Z,40.82
2018-08-19T07:54:20.829Z,40.96
2018-08-19T07:55:20.123Z,41.51
2018-08-19T07:56:21.433Z,41.26
2018-08-19T07:57:22.072Z,41.46
2018-08-19T07:58:22.363Z,41.64
2018-08-19T07:59:22.604Z,41.09
2018-08-19T08:00:22.880Z,41.55
2018-08-19T08:01:22.189Z,41.36
2018-08-19T08:02:24.571Z,40.88
2018-08-19T08:03:22.733Z,41.99
2018-08-19T08:04:24.089Z,41.35
2018-08-19T08:05:24.523Z,42.11
2018-08-19T08:06:24.807Z,43.07
2018-08-19T08:07:25.305Z,42.92
2018-08-19T08:08:25.694Z,43.51
2018-08-19T08:09:26.012Z,43.59
2018-08-19T08:10:26.445Z,44.99
2018-08-19T08:11:27.048Z,45.01
2018-08-19T08:12:28.427Z,45.45
2018-08-19T08:13:27.778Z,45.00
2018-08-19T08:14:28.172Z,44.68
2018-08-19T08:15:28.420Z,44.27
2018-08-19T08:16:28.680Z,44.02
2018-08-19T08:17:28.969Z,44.08
2018-08-19T08:18:29.247Z,44.47
2018-08-19T08:19:29.660Z,44.57
2018-08-19T08:20:29.197Z,45.25
2018-08-19T08:21:30.855Z,45.50
2018-08-19T08:22:30.561Z,44.95
2018-08-19T08:23:31.903Z,46.00
2018-08-19T08:24:32.361Z,46.70
2018-08-19T08:25:53.770Z,47.47
2018-08-19T08:26:54.951Z,47.43
2018-08-19T08:27:55.279Z,47.52
2018-08-19T08:28:55.758Z,47.57
2018-08-19T08:29:56.080Z,47.74
2018-08-19T08:30:56.418Z,48.13
2018-08-19T08:31:56.731Z,48.02
2018-08-19T08:32:57.025Z,48.69
2018-08-19T08:33:57.515Z,48.72
2018-08-19T08:34:56.876Z,49.02
2018-08-19T08:35:58.188Z,49.44
2018-08-19T08:36:58.694Z,49.43
2018-08-19T08:37:59.008Z,49.47
2018-08-19T08:38:58.406Z,49.89
2018-08-19T08:39:59.935Z,50.03
2018-08-19T08:41:00.687Z,50.00
2018-08-19T08:42:01.103Z,50.31
2018-08-19T08:43:01.858Z,50.54
2018-08-19T08:44:02.380Z,50.01
2018-08-19T08:45:02.653Z,49.83
2018-08-19T08:46:02.937Z,50.30
2018-08-19T08:47:03.487Z,50.11
2018-08-19T08:48:03.820Z,50.09
2018-08-19T08:49:03.019Z,49.93
2018-08-19T08:50:04.319Z,49.74
2018-08-19T08:51:04.610Z,49.59
2018-08-19T08:52:04.859Z,49.79
2018-08-19T08:53:05.100Z,50.02
2018-08-19T08:54:05.357Z,50.26
2018-08-19T08:55:05.638Z,50.75
2018-08-19T08:56:06.167Z,50.40
2018-08-19T08:57:06.412Z,50.66
2018-08-19T08:58:06.686Z,50.64
2018-08-19T08:59:07.004Z,50.27
2018-08-19T09:00:07.251Z,51.22
2018-08-19T09:01:07.665Z,51.08
2018-08-19T09:02:07.981Z,50.73
2018-08-19T09:03:08.313Z,51.37
2018-08-19T09:04:07.495Z,51.75
2018-08-19T09:05:08.806Z,51.68
2018-08-19T09:06:09.129Z,51.31
2018-08-19T09:07:09.396Z,51.14
2018-08-19T09:08:09.663Z,52.16
2018-08-19T09:09:09.962Z,51.66
2018-08-19T09:10:10.223Z,51.55
2018-08-19T09:11:10.605Z,51.25
2018-08-19T09:12:11.068Z,51.22
2018-08-19T09:13:11.279Z,51.19
2018-08-19T09:13:20.110Z,51.26
2018-08-19T09:14:20.664Z,51.34
2018-08-19T09:15:20.758Z,51.74
2018-08-19T09:16:21.024Z,50.61
2018-08-19T09:17:21.300Z,50.85
2018-08-19T09:18:21.549Z,51.57
2018-08-19T09:19:22.197Z,51.39
2018-08-19T09:20:21.458Z,51.98
2018-08-19T09:21:21.720Z,51.23
2018-08-19T09:22:23.042Z,50.92
2018-08-19T09:23:23.351Z,50.92
2018-08-19T09:24:22.589Z,51.09
2018-08-19T09:25:24.007Z,51.52
2018-08-19T09:26:24.412Z,52.03
2018-08-19T09:27:24.843Z,52.20
2018-08-19T09:28:26.087Z,51.97
2018-08-19T09:29:25.472Z,52.38
2018-08-19T09:30:25.854Z,52.98
2018-08-19T09:31:26.226Z,53.03
2018-08-19T09:32:26.774Z,52.58
2018-08-19T09:33:27.093Z,52.51
2018-08-19T09:34:27.458Z,51.82
2018-08-19T09:35:27.711Z,51.01
2018-08-19T09:36:27.999Z,50.90
2018-08-19T09:37:28.291Z,51.28
2018-08-19T09:38:28.570Z,51.29
2018-08-19T09:39:28.931Z,50.95
2018-08-19T09:40:29.392Z,50.52
2018-08-19T09:41:29.730Z,50.65
2018-08-19T09:42:30.018Z,50.44
2018-08-19T09:43:30.275Z,50.19
2018-08-19T09:44:31.048Z,49.95
2018-08-19T09:45:31.463Z,50.09
2018-08-19T09:46:31.803Z,49.21
2018-08-19T09:47:32.129Z,49.78
2018-08-19T09:48:31.461Z,49.69
2018-08-19T09:49:32.702Z,49.66
2018-08-19T09:50:33.012Z,49.86
2018-08-19T09:51:33.581Z,48.36
2018-08-19T09:52:33.806Z,49.13
2018-08-19T09:53:34.127Z,49.11
2018-08-19T09:54:34.769Z,48.27
2018-08-19T09:55:35.159Z,48.26
2018-08-19T09:56:35.397Z,47.92
2018-08-19T09:57:35.802Z,47.55
2018-08-19T09:58:35.076Z,47.34
2018-08-19T09:59:36.556Z,48.17
2018-08-19T10:00:36.914Z,47.69
2018-08-19T10:01:37.327Z,47.92
2018-08-19T10:01:45.962Z,47.84
2018-08-19T10:02:47.002Z,47.83
2018-08-19T10:03:47.330Z,47.69
2018-08-19T10:04:48.659Z,47.85
2018-08-19T10:05:47.932Z,47.43
2018-08-19T10:06:48.240Z,48.24
2018-08-19T10:07:48.500Z,48.15
2018-08-19T10:08:47.754Z,48.16
2018-08-19T10:09:49.567Z,48.50
2018-08-19T10:10:49.033Z,47.41
2018-08-19T10:11:50.381Z,47.54
2018-08-19T10:12:50.772Z,48.27
2018-08-19T10:13:50.526Z,46.97
2018-08-19T10:14:52.928Z,47.28
2018-08-19T10:15:52.285Z,46.29
2018-08-19T10:16:52.752Z,46.49
2018-08-19T10:17:53.046Z,46.98
2018-08-19T10:18:53.327Z,46.75
2018-08-19T10:19:53.622Z,46.33
2018-08-19T10:20:53.933Z,45.65
2018-08-19T10:21:54.369Z,46.24
2018-08-19T10:22:54.719Z,46.22
2018-08-19T10:23:54.986Z,46.17
2018-08-19T10:24:55.260Z,46.24
2018-08-19T10:25:55.499Z,46.24
2018-08-19T10:26:55.776Z,45.97
2018-08-19T10:27:56.094Z,45.76
2018-08-19T10:28:56.410Z,45.94
2018-08-19T10:29:56.924Z,46.34
2018-08-19T10:30:57.194Z,45.61
2018-08-19T10:31:57.555Z,45.92
2018-08-19T10:32:57.964Z,46.15
2018-08-19T10:33:58.300Z,46.43
2018-08-19T10:34:58.594Z,46.52
2018-08-19T10:35:58.897Z,45.92
2018-08-19T10:36:59.471Z,46.80
2018-08-19T10:37:59.804Z,46.42
2018-08-19T10:39:00.120Z,46.60
2018-08-19T10:40:00.478Z,46.34
2018-08-19T10:41:00.896Z,46.94
2018-08-19T10:42:01.384Z,46.83
2018-08-19T10:43:01.752Z,47.14
2018-08-19T10:44:02.640Z,47.45
2018-08-19T10:45:02.948Z,47.37
2018-08-19T10:46:03.648Z,47.57
2018-08-19T10:47:02.893Z,47.84
2018-08-19T10:48:04.547Z,47.78
2018-08-19T10:49:04.850Z,47.80
2018-08-19T10:49:13.799Z,46.28
2018-08-19T10:50:14.189Z,46.17
2018-08-19T10:51:15.628Z,45.54
2018-08-19T10:52:15.985Z,47.04
2018-08-19T10:53:16.344Z,46.47
2018-08-19T10:54:15.574Z,45.88
2018-08-19T10:55:16.823Z,46.70
2018-08-19T10:56:17.055Z,46.94
2018-08-19T10:57:17.317Z,47.06
2018-08-19T10:58:17.623Z,46.42
2018-08-19T10:59:17.890Z,46.29
2018-08-19T11:00:18.146Z,45.29
2018-08-19T11:01:18.847Z,44.90
2018-08-19T11:02:19.106Z,45.19
2018-08-19T11:03:19.695Z,44.39
2018-08-19T11:04:20.043Z,44.71
2018-08-19T11:05:20.323Z,44.19
2018-08-19T11:06:20.545Z,43.61
2018-08-19T11:07:20.821Z,44.00
2018-08-19T11:08:21.109Z,44.72
2018-08-19T11:09:21.705Z,44.42
2018-08-19T11:10:22.133Z,44.49
2018-08-19T11:11:22.757Z,44.23
2018-08-19T11:12:23.025Z,44.03
2018-08-19T11:13:23.378Z,44.15
2018-08-19T11:14:22.642Z,43.76
2018-08-19T11:15:23.910Z,44.15
2018-08-19T11:16:24.183Z,44.15
2018-08-19T11:17:24.406Z,44.20
2018-08-19T11:18:24.689Z,43.93
2018-08-19T11:19:25.228Z,43.83
2018-08-19T11:20:25.494Z,44.03
2018-08-19T11:21:25.753Z,44.04
2018-08-19T11:22:26.118Z,44.16
2018-08-19T11:23:25.463Z,44.42
2018-08-19T11:24:28.170Z,43.80
2018-08-19T11:25:27.446Z,44.33
2018-08-19T11:26:27.774Z,44.12
2018-08-19T11:27:28.313Z,43.80
2018-08-19T11:28:27.527Z,44.39
2018-08-19T11:29:28.793Z,44.65
2018-08-19T11:30:29.059Z,43.56
2018-08-19T11:31:29.552Z,44.04
2018-08-19T11:32:29.080Z,44.20
2018-08-19T11:33:30.691Z,44.12
2018-08-19T11:34:30.979Z,44.07
2018-08-19T11:35:31.316Z,44.08
2018-08-19T11:36:31.629Z,44.21
2018-08-19T11:37:31.947Z,44.27
2018-08-19T11:38:32.188Z,44.20
2018-08-19T11:38:46.017Z,44.47
2018-08-19T11:39:43.745Z,44.35
2018-08-19T11:40:44.528Z,44.16
2018-08-19T11:41:45.800Z,43.44
2018-08-19T11:42:46.219Z,43.49
2018-08-19T11:43:46.718Z,43.25
2018-08-19T11:44:47.060Z,43.52
2018-08-19T11:45:47.732Z,43.55
2018-08-19T11:46:47.957Z,43.41
2018-08-19T11:47:49.590Z,43.55
2018-08-19T11:48:48.898Z,43.55
2018-08-19T11:49:48.173Z,43.87
2018-08-19T11:50:49.885Z,43.53
2018-08-19T11:51:50.191Z,43.34
2018-08-19T11:52:50.754Z,43.15
2018-08-19T11:53:50.560Z,43.18
2018-08-19T11:54:51.906Z,43.07
2018-08-19T11:55:52.201Z,43.15
2018-08-19T11:56:52.431Z,43.07
2018-08-19T11:57:52.860Z,43.04
2018-08-19T11:58:53.442Z,43.51
2018-08-19T11:59:53.905Z,42.94
2018-08-19T12:00:54.199Z,42.84
2018-08-19T12:01:54.523Z,43.14
2018-08-19T12:02:53.792Z,43.50
2018-08-19T12:03:55.117Z,43.19
2018-08-19T12:04:55.839Z,43.62
2018-08-19T12:05:56.363Z,43.51
2018-08-19T12:06:56.586Z,44.06
2018-08-19T12:07:56.997Z,44.07
2018-08-19T12:08:57.319Z,43.90
2018-08-19T12:09:57.724Z,43.74
2018-08-19T12:10:57.996Z,43.28
2018-08-19T12:11:58.330Z,42.71
2018-08-19T12:12:58.612Z,43.41
2018-08-19T12:13:58.888Z,43.28
2018-08-19T12:14:59.700Z,43.43
2018-08-19T12:16:00.093Z,43.20
2018-08-19T12:17:00.931Z,43.11
2018-08-19T12:18:00.132Z,42.35
2018-08-19T12:19:01.521Z,42.64
2018-08-19T12:20:01.823Z,42.08
2018-08-19T12:21:02.120Z,42.24
2018-08-19T12:22:03.078Z,42.34
2018-08-19T12:23:03.404Z,42.61
2018-08-19T12:24:03.720Z,42.45
2018-08-19T12:25:03.971Z,41.96
2018-08-19T12:26:04.292Z,42.43
2018-08-19T21:42:57.674Z,65.64
2018-08-19T21:43:58.197Z,65.64
2018-08-19T21:44:58.556Z,65.78
2018-08-19T21:45:58.883Z,65.88
2018-08-19T21:46:59.210Z,65.86
2018-08-19T21:47:59.514Z,66.13
2018-08-19T21:48:59.846Z,66.28
2018-08-19T21:49:59.072Z,66.13
2018-08-19T21:51:00.474Z,66.52
2018-08-19T21:52:00.845Z,67.07
2018-08-19T21:53:01.105Z,67.33
2018-08-19T21:54:01.421Z,67.43
2018-08-19T21:55:01.682Z,67.42
2018-08-19T21:56:01.967Z,67.56
2018-08-19T21:57:02.772Z,67.85
2018-08-19T21:58:02.996Z,67.98
2018-08-19T21:59:03.395Z,68.01
2018-08-19T22:00:03.591Z,68.04
2018-08-19T22:01:03.704Z,67.52
2018-08-19T22:02:04.012Z,67.57